Time;durP1;ratioP1;P1;durP2;ratioP2;P2;SDS_P1;SDS_P2;PMS_P1;PMS_P2;Temp;Humidity;BMP_temperature;BMP_pressure;BME280_temperature;BME280_humidity;BME280_pressure;Samples;Min_cycle;Max_cycle;Signal;HPM_P1;HPM_P2
2021/10/01 00:00:56;;;;;;;9.07;2.50;;;;;;;;;;5025975;28;20038;-58
2021/10/01 00:03:22;;;;;;;6.28;2.33;;;;;;;;;;5026184;28;20037;-57
2021/10/01 00:05:47;;;;;;;6.68;2.25;;;;;;;;;;5024885;28;20052;-57
2021/10/01 00:08:12;;;;;;;4.75;2.42;;;;;;;;;;5026230;28;20040;-57
2021/10/01 00:10:37;;;;;;;5.25;2.10;;;;;;;;;;5024224;28;20076;-57
2021/10/01 00:13:03;;;;;;;5.97;2.70;;;;;;;;;;5022033;28;20432;-57
2021/10/01 00:15:28;;;;;;;8.75;2.72;;;;;;;;;;5024733;28;20064;-58
2021/10/01 00:17:54;;;;;;;8.82;2.70;;;;;;;;;;5021253;28;20499;-57
2021/10/01 00:20:19;;;;;;;7.25;2.70;;;;;;;;;;5024577;28;20022;-57
2021/10/01 00:22:44;;;;;;;7.32;2.25;;;;;;;;;;5025034;28;20037;-57
2021/10/01 00:25:09;;;;;;;9.07;2.60;;;;;;;;;;5012596;28;20037;-58
2021/10/01 00:27:34;;;;;;;12.05;2.67;;;;;;;;;;5021023;28;20025;-57
2021/10/01 00:30:00;;;;;;;16.80;3.70;;;;;;;;;;5020948;28;20028;-57
2021/10/01 00:32:25;;;;;;;6.97;2.20;;;;;;;;;;5025098;28;20034;-57
2021/10/01 00:34:51;;;;;;;8.07;2.53;;;;;;;;;;5025213;28;20056;-57
2021/10/01 00:37:16;;;;;;;14.10;3.03;;;;;;;;;;5025320;28;20665;-57
2021/10/01 00:39:42;;;;;;;14.18;3.05;;;;;;;;;;5024470;28;20113;-57
2021/10/01 00:42:07;;;;;;;10.82;2.67;;;;;;;;;;5025451;28;20041;-57
2021/10/01 00:44:32;;;;;;;11.10;3.10;;;;;;;;;;5025633;28;20104;-57
2021/10/01 00:46:57;;;;;;;11.65;2.85;;;;;;;;;;5024727;28;20124;-57
2021/10/01 00:49:22;;;;;;;7.93;2.28;;;;;;;;;;5025513;28;20108;-57
2021/10/01 00:51:48;;;;;;;8.93;2.47;;;;;;;;;;5024178;28;20103;-57
2021/10/01 00:54:13;;;;;;;6.05;2.05;;;;;;;;;;5040787;28;20021;-57
2021/10/01 00:56:38;;;;;;;5.20;2.08;;;;;;;;;;5039625;28;20041;-58
2021/10/01 00:59:03;;;;;;;7.05;2.40;;;;;;;;;;5024884;28;20754;-57
2021/10/01 01:01:29;;;;;;;6.18;2.20;;;;;;;;;;5024808;28;20497;-57
2021/10/01 01:03:55;;;;;;;6.63;2.22;;;;;;;;;;5019709;28;20044;-57
2021/10/01 01:06:39;;;;;;;2.92;1.98;;;;;;;;;;5023851;28;20479;-57
2021/10/01 01:09:05;;;;;;;5.93;2.53;;;;;;;;;;5019754;28;20068;-57
2021/10/01 01:11:48;;;;;;;6.20;2.63;;;;;;;;;;5024942;28;20475;-57
2021/10/01 01:14:18;;;;;;;11.73;3.42;;;;;;;;;;5025253;28;20432;-57
2021/10/01 01:16:43;;;;;;;14.63;3.03;;;;;;;;;;5024772;28;20060;-57
2021/10/01 01:19:13;;;;;;;8.82;3.05;;;;;;;;;;5042193;28;20475;-57
2021/10/01 01:21:38;;;;;;;7.93;3.00;;;;;;;;;;5042500;28;20046;-57
2021/10/01 01:24:12;;;;;;;7.57;2.42;;;;;;;;;;5025151;28;20399;-57
2021/10/01 01:26:53;;;;;;;8.63;2.88;;;;;;;;;;5024945;28;20044;-57
2021/10/01 01:29:28;;;;;;;11.13;3.15;;;;;;;;;;5028569;28;20013;-57
2021/10/01 01:31:54;;;;;;;6.30;3.22;;;;;;;;;;5035832;28;20507;-57
2021/10/01 01:34:20;;;;;;;6.78;3.15;;;;;;;;;;5027025;28;20119;-57
2021/10/01 01:36:45;;;;;;;8.25;3.22;;;;;;;;;;5027691;28;20060;-58
2021/10/01 01:39:11;;;;;;;8.13;2.70;;;;;;;;;;5019546;28;20453;-57
2021/10/01 01:41:36;;;;;;;5.28;2.67;;;;;;;;;;5043047;28;20488;-57
2021/10/01 01:44:01;;;;;;;10.85;2.90;;;;;;;;;;5014002;28;20471;-57
2021/10/01 01:46:27;;;;;;;7.28;2.80;;;;;;;;;;5043482;28;20095;-57
2021/10/01 01:48:52;;;;;;;8.30;2.55;;;;;;;;;;5017863;28;20029;-57
2021/10/01 01:51:17;;;;;;;5.63;2.80;;;;;;;;;;5019384;28;20046;-58
2021/10/01 01:53:42;;;;;;;7.28;2.70;;;;;;;;;;5028259;28;20021;-57
2021/10/01 01:56:08;;;;;;;7.63;2.38;;;;;;;;;;5011972;28;20096;-57
2021/10/01 01:58:33;;;;;;;9.75;2.75;;;;;;;;;;5019532;28;20388;-57
2021/10/01 02:00:58;;;;;;;9.32;2.72;;;;;;;;;;5042242;28;20399;-57
2021/10/01 02:03:24;;;;;;;8.45;2.53;;;;;;;;;;5022032;28;20018;-57
2021/10/01 02:05:49;;;;;;;9.98;2.95;;;;;;;;;;5026284;28;20045;-57
2021/10/01 02:08:15;;;;;;;7.93;3.00;;;;;;;;;;5043757;28;20495;-57
2021/10/01 02:10:40;;;;;;;7.75;2.60;;;;;;;;;;5015666;28;20037;-57
2021/10/01 02:13:07;;;;;;;9.32;2.50;;;;;;;;;;5042085;28;20040;-57
2021/10/01 02:15:32;;;;;;;11.52;2.65;;;;;;;;;;5023522;28;20061;-57
2021/10/01 02:17:58;;;;;;;7.88;2.80;;;;;;;;;;5022282;28;20817;-57
2021/10/01 02:20:23;;;;;;;8.95;2.58;;;;;;;;;;5027808;28;20038;-57
2021/10/01 02:22:49;;;;;;;5.22;2.10;;;;;;;;;;5014675;28;20466;-57
2021/10/01 02:27:59;;;;;;;5.75;2.30;;;;;;;;;;5038405;28;20032;-57
2021/10/01 02:30:24;;;;;;;4.97;1.98;;;;;;;;;;5026398;28;20056;-57
2021/10/01 02:33:03;;;;;;;5.43;2.03;;;;;;;;;;5038248;28;20451;-56
2021/10/01 02:35:28;;;;;;;7.35;1.90;;;;;;;;;;5026503;28;20488;-58
2021/10/01 02:37:53;;;;;;;7.93;2.28;;;;;;;;;;5039750;28;20033;-57
2021/10/01 02:40:18;;;;;;;5.43;1.92;;;;;;;;;;5024897;28;20060;-57
2021/10/01 02:42:44;;;;;;;4.93;2.00;;;;;;;;;;5028254;28;20029;-57
2021/10/01 02:45:09;;;;;;;7.60;2.40;;;;;;;;;;5026715;28;20109;-57
2021/10/01 02:47:35;;;;;;;8.52;2.30;;;;;;;;;;5025855;28;20024;-57
2021/10/01 02:50:00;;;;;;;6.70;2.15;;;;;;;;;;5027219;28;20036;-57
2021/10/01 02:52:31;;;;;;;8.38;2.33;;;;;;;;;;5038058;28;20061;-57
2021/10/01 02:55:02;;;;;;;8.85;2.42;;;;;;;;;;5025904;28;20305;-57
2021/10/01 02:57:28;;;;;;;10.10;2.35;;;;;;;;;;5024999;28;20132;-57
2021/10/01 02:59:53;;;;;;;5.88;2.35;;;;;;;;;;5026764;28;20450;-57
2021/10/01 03:02:19;;;;;;;4.97;1.85;;;;;;;;;;5025736;28;20533;-57
2021/10/01 03:04:46;;;;;;;7.78;2.30;;;;;;;;;;5026674;28;20040;-57
2021/10/01 03:07:11;;;;;;;4.72;2.00;;;;;;;;;;5020519;28;20037;-57
2021/10/01 03:09:36;;;;;;;4.28;2.15;;;;;;;;;;5036893;28;20029;-57
2021/10/01 03:12:02;;;;;;;4.38;1.77;;;;;;;;;;5020404;28;20049;-57
2021/10/01 03:14:27;;;;;;;6.00;2.55;;;;;;;;;;5032112;28;20063;-58
2021/10/01 03:16:52;;;;;;;6.88;2.63;;;;;;;;;;5019273;28;20195;-57
2021/10/01 03:19:22;;;;;;;8.55;3.72;;;;;;;;;;5042090;28;20044;-57
2021/10/01 03:21:47;;;;;;;9.53;3.83;;;;;;;;;;5035428;28;20041;-57
2021/10/01 03:24:12;;;;;;;11.77;3.88;;;;;;;;;;5021869;28;20032;-57
2021/10/01 03:26:38;;;;;;;11.30;3.53;;;;;;;;;;5021483;28;20033;-57
2021/10/01 03:29:03;;;;;;;9.63;3.22;;;;;;;;;;5041104;28;20052;-58
2021/10/01 03:31:28;;;;;;;13.00;3.47;;;;;;;;;;5025715;28;20104;-57
2021/10/01 03:33:54;;;;;;;8.10;2.40;;;;;;;;;;5025687;28;20100;-57
2021/10/01 03:36:20;;;;;;;9.77;2.17;;;;;;;;;;5025953;28;20033;-57
2021/10/01 03:38:45;;;;;;;5.63;2.33;;;;;;;;;;5025479;28;20486;-58
2021/10/01 03:41:11;;;;;;;13.88;2.90;;;;;;;;;;5025541;28;20112;-57
2021/10/01 03:43:36;;;;;;;9.02;2.72;;;;;;;;;;5040495;28;20025;-57
2021/10/01 03:46:01;;;;;;;8.27;2.80;;;;;;;;;;5024282;28;20114;-57
2021/10/01 03:48:26;;;;;;;7.80;2.50;;;;;;;;;;5024882;28;20028;-57
2021/10/01 03:50:52;;;;;;;11.70;3.40;;;;;;;;;;5025767;28;20045;-57
2021/10/01 03:53:17;;;;;;;7.80;2.75;;;;;;;;;;5022351;28;20552;-57
2021/10/01 03:55:42;;;;;;;11.07;3.25;;;;;;;;;;5018469;28;20488;-57
2021/10/01 03:58:08;;;;;;;11.52;3.50;;;;;;;;;;5022586;28;20688;-57
2021/10/01 04:00:33;;;;;;;11.43;4.30;;;;;;;;;;5024887;28;20453;-57
2021/10/01 04:02:58;;;;;;;11.90;4.60;;;;;;;;;;5020396;28;20056;-57
2021/10/01 04:05:24;;;;;;;19.35;5.60;;;;;;;;;;5024253;28;20037;-57
2021/10/01 04:07:49;;;;;;;15.75;4.78;;;;;;;;;;5019998;28;20075;-57
2021/10/01 04:10:15;;;;;;;9.80;3.40;;;;;;;;;;5024338;28;20049;-57
2021/10/01 04:12:40;;;;;;;9.27;2.88;;;;;;;;;;5025327;28;20391;-58
2021/10/01 04:15:06;;;;;;;11.73;2.85;;;;;;;;;;5021307;28;20029;-57
2021/10/01 04:17:31;;;;;;;8.18;2.63;;;;;;;;;;5025654;28;20124;-57
2021/10/01 04:19:58;;;;;;;9.45;2.80;;;;;;;;;;5022755;28;20025;-57
2021/10/01 04:22:23;;;;;;;8.73;3.15;;;;;;;;;;5022243;28;20045;-57
2021/10/01 04:24:49;;;;;;;8.02;2.40;;;;;;;;;;5020579;28;20681;-57
2021/10/01 04:27:14;;;;;;;6.70;2.47;;;;;;;;;;5024688;28;20038;-57
2021/10/01 04:29:39;;;;;;;10.25;2.50;;;;;;;;;;5024599;28;20033;-57
2021/10/01 04:32:06;;;;;;;7.72;2.60;;;;;;;;;;5024215;28;20095;-57
2021/10/01 04:34:35;;;;;;;8.68;2.60;;;;;;;;;;5018120;28;20114;-57
2021/10/01 04:37:00;;;;;;;6.43;2.40;;;;;;;;;;5015056;28;20045;-57
2021/10/01 04:39:25;;;;;;;7.65;2.70;;;;;;;;;;5021381;28;20087;-57
2021/10/01 04:41:50;;;;;;;7.25;3.17;;;;;;;;;;5025649;28;20381;-57
2021/10/01 04:44:16;;;;;;;11.27;3.08;;;;;;;;;;5025456;28;20760;-57
2021/10/01 04:46:41;;;;;;;11.55;3.15;;;;;;;;;;5024279;28;20349;-57
2021/10/01 04:49:06;;;;;;;8.93;2.55;;;;;;;;;;5025961;28;20036;-58
2021/10/01 04:51:31;;;;;;;12.75;3.45;;;;;;;;;;5024242;28;20120;-58
2021/10/01 04:53:57;;;;;;;7.30;2.40;;;;;;;;;;5027581;28;20053;-58
2021/10/01 04:56:24;;;;;;;7.63;2.42;;;;;;;;;;5028256;28;20042;-58
2021/10/01 04:58:50;;;;;;;4.97;1.92;;;;;;;;;;5029034;28;20104;-57
2021/10/01 05:01:15;;;;;;;6.20;2.47;;;;;;;;;;5029952;28;20108;-58
2021/10/01 05:03:40;;;;;;;7.25;2.35;;;;;;;;;;5029193;28;20022;-58
2021/10/01 05:06:05;;;;;;;8.68;2.67;;;;;;;;;;5028356;28;20040;-58
2021/10/01 05:08:31;;;;;;;12.65;2.72;;;;;;;;;;5029208;28;20109;-58
2021/10/01 05:10:56;;;;;;;9.15;2.40;;;;;;;;;;5027518;28;20052;-58
2021/10/01 05:13:21;;;;;;;7.45;2.50;;;;;;;;;;5027539;28;20022;-57
2021/10/01 05:15:48;;;;;;;6.57;2.00;;;;;;;;;;5022323;28;20655;-58
2021/10/01 05:18:15;;;;;;;5.68;2.70;;;;;;;;;;5041983;28;20101;-58
2021/10/01 05:20:40;;;;;;;5.95;2.38;;;;;;;;;;5026877;28;20068;-57
2021/10/01 05:23:05;;;;;;;4.95;2.38;;;;;;;;;;5021408;28;20057;-57
2021/10/01 05:25:31;;;;;;;7.30;2.55;;;;;;;;;;5025934;28;20877;-57
2021/10/01 05:27:56;;;;;;;5.97;2.85;;;;;;;;;;5026598;28;20025;-57
2021/10/01 05:30:21;;;;;;;7.05;3.45;;;;;;;;;;5027493;28;20034;-57
2021/10/01 05:32:46;;;;;;;8.43;3.50;;;;;;;;;;5026095;28;20132;-57
2021/10/01 05:35:12;;;;;;;9.15;3.10;;;;;;;;;;5022204;28;20045;-57
2021/10/01 05:37:37;;;;;;;8.48;2.80;;;;;;;;;;5039147;28;20059;-57
2021/10/01 05:40:02;;;;;;;10.32;2.83;;;;;;;;;;5026136;28;20022;-57
2021/10/01 05:42:28;;;;;;;12.68;2.83;;;;;;;;;;5027520;28;20044;-58
2021/10/01 05:44:53;;;;;;;11.38;3.20;;;;;;;;;;5028582;28;20087;-57
2021/10/01 05:47:18;;;;;;;5.40;3.08;;;;;;;;;;5027735;28;20049;-58
2021/10/01 05:49:44;;;;;;;6.53;2.55;;;;;;;;;;5028394;28;20033;-58
2021/10/01 05:52:37;;;;;;;4.30;2.30;;;;;;;;;;5027689;28;20045;-57
2021/10/01 05:55:05;;;;;;;6.43;2.85;;;;;;;;;;5028242;28;20036;-57
2021/10/01 05:57:30;;;;;;;8.65;2.90;;;;;;;;;;5028562;28;20095;-58
2021/10/01 05:59:56;;;;;;;5.07;2.63;;;;;;;;;;5044041;28;20033;-58
2021/10/01 06:02:21;;;;;;;6.63;2.63;;;;;;;;;;5024002;28;20510;-58
2021/10/01 06:04:47;;;;;;;8.73;3.03;;;;;;;;;;5023070;28;20554;-58
2021/10/01 06:07:12;;;;;;;6.78;2.50;;;;;;;;;;5025399;28;20049;-58
2021/10/01 06:09:40;;;;;;;7.97;2.90;;;;;;;;;;5028177;28;20033;-58
2021/10/01 06:12:05;;;;;;;9.30;2.67;;;;;;;;;;5025823;28;20584;-58
2021/10/01 06:14:30;;;;;;;6.63;2.67;;;;;;;;;;5027462;28;20057;-58
2021/10/01 06:16:56;;;;;;;2.92;1.90;;;;;;;;;;5024898;28;20065;-58
2021/10/01 06:19:21;;;;;;;8.43;2.45;;;;;;;;;;5028392;28;20468;-57
2021/10/01 06:21:46;;;;;;;6.57;2.20;;;;;;;;;;5026700;28;20361;-58
2021/10/01 06:24:12;;;;;;;12.82;2.35;;;;;;;;;;5025456;28;20064;-58
2021/10/01 06:26:37;;;;;;;4.22;2.45;;;;;;;;;;5020595;28;20053;-58
2021/10/01 06:29:02;;;;;;;9.50;2.83;;;;;;;;;;5027148;28;20436;-58
2021/10/01 06:31:27;;;;;;;14.18;8.80;;;;;;;;;;5026437;28;20046;-58
2021/10/01 06:33:52;;;;;;;17.17;8.18;;;;;;;;;;5042511;28;20036;-58
2021/10/01 06:36:20;;;;;;;6.57;4.00;;;;;;;;;;5024851;28;20045;-58
2021/10/01 06:38:46;;;;;;;10.05;3.67;;;;;;;;;;5027632;28;20029;-58
2021/10/01 06:41:12;;;;;;;9.32;3.20;;;;;;;;;;5027551;28;20025;-56
2021/10/01 06:43:38;;;;;;;6.90;3.50;;;;;;;;;;5025366;28;20418;-56
2021/10/01 06:46:06;;;;;;;5.35;2.97;;;;;;;;;;5027257;28;20096;-58
2021/10/01 06:51:30;;;;;;;5.22;3.08;;;;;;;;;;5025566;28;20088;-58
2021/10/01 08:20:35;;;;;;;4.97;1.73;;;;;;;;;;5024763;28;20048;-57
2021/10/01 08:23:00;;;;;;;3.72;1.50;;;;;;;;;;5026225;28;20391;-57
2021/10/01 08:25:25;;;;;;;4.55;1.90;;;;;;;;;;5025662;28;20034;-57
2021/10/01 08:27:51;;;;;;;5.75;1.75;;;;;;;;;;5027922;28;20029;-57
2021/10/01 08:30:16;;;;;;;4.85;1.90;;;;;;;;;;5028953;28;20030;-57
2021/10/01 08:32:41;;;;;;;5.72;1.80;;;;;;;;;;5028357;28;20364;-57
2021/10/01 08:35:07;;;;;;;3.67;1.63;;;;;;;;;;5044828;28;20037;-57
2021/10/01 08:37:32;;;;;;;5.43;1.58;;;;;;;;;;5030105;28;20025;-57
2021/10/01 08:39:57;;;;;;;3.50;1.27;;;;;;;;;;5030339;28;20537;-58
2021/10/01 08:42:22;;;;;;;7.78;1.85;;;;;;;;;;5018616;28;20538;-57
2021/10/01 08:44:48;;;;;;;5.40;1.80;;;;;;;;;;5040370;28;20033;-57
2021/10/01 08:47:13;;;;;;;3.45;1.60;;;;;;;;;;5024894;28;20088;-57
2021/10/01 08:49:39;;;;;;;2.97;1.52;;;;;;;;;;5030240;28;20029;-57
2021/10/01 08:52:05;;;;;;;4.10;1.65;;;;;;;;;;5028550;28;20049;-57
2021/10/01 08:54:31;;;;;;;5.57;1.70;;;;;;;;;;5028922;28;20029;-57
2021/10/01 08:56:56;;;;;;;8.98;1.90;;;;;;;;;;5029475;28;20041;-57
2021/10/01 08:59:21;;;;;;;4.82;1.55;;;;;;;;;;5029712;28;20061;-58
2021/10/01 09:01:46;;;;;;;4.40;1.90;;;;;;;;;;5029135;28;20559;-57
2021/10/01 09:04:12;;;;;;;8.85;2.10;;;;;;;;;;5028302;28;20044;-57
2021/10/01 09:06:37;;;;;;;8.18;1.90;;;;;;;;;;5026671;28;20034;-57
2021/10/01 09:09:05;;;;;;;7.82;1.75;;;;;;;;;;5029383;28;20032;-57
2021/10/01 09:11:35;;;;;;;5.68;1.70;;;;;;;;;;5029639;28;20067;-58
2021/10/01 09:14:00;;;;;;;6.18;1.80;;;;;;;;;;5028976;28;20025;-58
2021/10/01 09:16:26;;;;;;;9.20;1.85;;;;;;;;;;5029053;28;20037;-57
2021/10/01 09:18:51;;;;;;;4.38;1.63;;;;;;;;;;5029228;28;20066;-58
2021/10/01 09:21:20;;;;;;;5.15;1.65;;;;;;;;;;5029135;28;20112;-59
2021/10/01 09:23:56;;;;;;;3.15;1.42;;;;;;;;;;5029712;28;20026;-57
2021/10/01 09:26:21;;;;;;;3.17;1.60;;;;;;;;;;5028115;28;20048;-57
2021/10/01 09:28:46;;;;;;;5.57;1.80;;;;;;;;;;5029372;28;20037;-58
2021/10/01 09:31:30;;;;;;;4.60;1.42;;;;;;;;;;5028063;28;20056;-57
2021/10/01 09:33:55;;;;;;;5.72;1.70;;;;;;;;;;5028328;28;20025;-58
2021/10/01 09:36:20;;;;;;;2.25;1.30;;;;;;;;;;5028138;28;20034;-58
2021/10/01 09:38:45;;;;;;;3.53;1.50;;;;;;;;;;5028127;28;20159;-58
2021/10/01 09:41:12;;;;;;;10.85;1.60;;;;;;;;;;5028744;28;20038;-59
2021/10/01 09:43:37;;;;;;;2.72;1.45;;;;;;;;;;5027926;28;20013;-58
2021/10/01 09:46:03;;;;;;;5.30;1.60;;;;;;;;;;5028411;28;20446;-58
2021/10/01 09:48:28;;;;;;;8.18;2.00;;;;;;;;;;5028526;28;20450;-58
2021/10/01 09:51:05;;;;;;;6.20;1.48;;;;;;;;;;5027332;28;20037;-58
2021/10/01 09:53:40;;;;;;;5.60;1.75;;;;;;;;;;5022583;28;20025;-57
2021/10/01 09:56:15;;;;;;;5.55;1.50;;;;;;;;;;5027485;28;20056;-58
2021/10/01 09:58:41;;;;;;;3.55;1.40;;;;;;;;;;5028915;28;20029;-57
2021/10/01 10:01:06;;;;;;;4.93;1.60;;;;;;;;;;5042400;28;20082;-57
2021/10/01 10:03:31;;;;;;;6.15;1.95;;;;;;;;;;5028192;28;20056;-57
2021/10/01 10:06:06;;;;;;;5.60;1.80;;;;;;;;;;5026104;28;20030;-57
2021/10/01 10:08:32;;;;;;;9.05;1.63;;;;;;;;;;5027238;28;20553;-58
2021/10/01 10:10:58;;;;;;;6.22;1.50;;;;;;;;;;5024279;28;20483;-58
2021/10/01 10:13:39;;;;;;;6.50;1.70;;;;;;;;;;5027910;28;20113;-58
2021/10/01 10:16:05;;;;;;;7.18;1.60;;;;;;;;;;5026633;28;20581;-57
2021/10/01 10:18:30;;;;;;;5.85;1.58;;;;;;;;;;5027942;28;20420;-57
2021/10/01 10:20:56;;;;;;;2.55;1.35;;;;;;;;;;5026280;28;20033;-57
2021/10/01 10:23:21;;;;;;;5.45;1.75;;;;;;;;;;5017078;28;20079;-57
2021/10/01 10:25:47;;;;;;;5.03;1.48;;;;;;;;;;5026313;28;20037;-57
2021/10/01 10:28:12;;;;;;;4.60;1.40;;;;;;;;;;5027585;28;20102;-58
2021/10/01 10:30:37;;;;;;;7.38;1.55;;;;;;;;;;5025469;28;20051;-58
2021/10/01 10:33:03;;;;;;;3.55;1.40;;;;;;;;;;5021020;28;20255;-58
2021/10/01 10:35:38;;;;;;;5.65;1.50;;;;;;;;;;5010994;28;20442;-60
2021/10/01 10:38:03;;;;;;;6.97;2.00;;;;;;;;;;5023070;28;20031;-58
2021/10/01 10:40:29;;;;;;;5.85;1.58;;;;;;;;;;5026330;28;20483;-57
2021/10/01 10:43:01;;;;;;;4.93;1.40;;;;;;;;;;5016779;28;20550;-58
2021/10/01 10:45:27;;;;;;;5.65;1.77;;;;;;;;;;5025315;28;20053;-57
2021/10/01 10:47:53;;;;;;;5.40;1.52;;;;;;;;;;5027252;28;20026;-57
2021/10/01 10:50:25;;;;;;;9.23;1.52;;;;;;;;;;5024700;28;20044;-57
2021/10/01 10:53:10;;;;;;;3.33;1.38;;;;;;;;;;5026855;28;20043;-57
2021/10/01 10:55:55;;;;;;;4.47;1.55;;;;;;;;;;5026325;28;20148;-57
2021/10/01 10:58:24;;;;;;;5.40;1.60;;;;;;;;;;5022364;28;20048;-57
2021/10/01 11:00:51;;;;;;;4.18;1.50;;;;;;;;;;5026562;28;20477;-57
2021/10/01 11:03:17;;;;;;;3.80;1.52;;;;;;;;;;5012977;28;20108;-57
2021/10/01 11:05:42;;;;;;;6.13;1.80;;;;;;;;;;5024345;28;20452;-57
2021/10/01 11:08:08;;;;;;;4.63;1.38;;;;;;;;;;5041614;28;20025;-58
2021/10/01 11:10:33;;;;;;;3.60;1.30;;;;;;;;;;5039757;28;20038;-59
2021/10/01 11:13:17;;;;;;;6.07;1.35;;;;;;;;;;5027643;28;20901;-59
2021/10/01 11:15:44;;;;;;;3.13;1.33;;;;;;;;;;5022175;28;20056;-58
2021/10/01 11:18:13;;;;;;;4.30;1.40;;;;;;;;;;5026607;28;20531;-58
2021/10/01 11:20:38;;;;;;;5.80;1.70;;;;;;;;;;5024723;28;20076;-58
2021/10/01 11:23:21;;;;;;;2.67;1.27;;;;;;;;;;5026813;28;20077;-58
2021/10/01 11:25:47;;;;;;;5.93;1.90;;;;;;;;;;5022001;28;20037;-58
2021/10/01 11:28:12;;;;;;;5.28;1.55;;;;;;;;;;5026144;28;20026;-58
2021/10/01 11:30:37;;;;;;;2.33;1.35;;;;;;;;;;5025992;28;20041;-58
2021/10/01 11:33:10;;;;;;;2.92;1.40;;;;;;;;;;5026613;28;20475;-58
2021/10/01 11:35:53;;;;;;;3.20;1.30;;;;;;;;;;5025368;28;20142;-58
2021/10/01 11:38:22;;;;;;;6.05;1.40;;;;;;;;;;5024079;28;20122;-58
2021/10/01 11:40:47;;;;;;;3.67;1.43;;;;;;;;;;5025020;28;20037;-58
2021/10/01 11:43:13;;;;;;;5.47;1.60;;;;;;;;;;5026503;28;20036;-58
2021/10/01 11:45:39;;;;;;;2.95;1.38;;;;;;;;;;5025914;28;20041;-58
2021/10/01 11:48:08;;;;;;;4.07;1.40;;;;;;;;;;5025761;28;20083;-58
2021/10/01 11:50:36;;;;;;;2.97;1.40;;;;;;;;;;5025235;28;20041;-58
2021/10/01 11:53:02;;;;;;;4.10;1.30;;;;;;;;;;5025611;28;20051;-58
2021/10/01 11:55:28;;;;;;;3.53;1.40;;;;;;;;;;5025625;28;20033;-59
2021/10/01 11:57:53;;;;;;;3.95;1.50;;;;;;;;;;5027178;28;20025;-59
2021/10/01 12:00:18;;;;;;;5.50;1.80;;;;;;;;;;5024894;28;20040;-58
2021/10/01 12:02:44;;;;;;;6.25;1.50;;;;;;;;;;5022206;28;20033;-58
2021/10/01 12:05:17;;;;;;;6.82;1.55;;;;;;;;;;5023301;28;20098;-58
2021/10/01 12:07:44;;;;;;;4.55;1.60;;;;;;;;;;5024156;28;20013;-58
2021/10/01 12:10:09;;;;;;;6.10;1.52;;;;;;;;;;5024440;28;20061;-58
2021/10/01 12:12:35;;;;;;;4.88;1.75;;;;;;;;;;5024991;28;20522;-60
2021/10/01 12:15:00;;;;;;;5.45;1.60;;;;;;;;;;5024916;28;20025;-57
2021/10/01 12:17:26;;;;;;;3.55;1.58;;;;;;;;;;5025725;28;20060;-58
2021/10/01 12:19:57;;;;;;;3.47;1.55;;;;;;;;;;5026377;28;20497;-58
2021/10/01 12:22:24;;;;;;;2.45;1.30;;;;;;;;;;5021569;28;20088;-58
2021/10/01 12:24:52;;;;;;;4.10;1.50;;;;;;;;;;5026389;28;20033;-58
2021/10/01 12:27:19;;;;;;;4.15;1.52;;;;;;;;;;5021958;28;20061;-58
2021/10/01 12:29:48;;;;;;;5.65;1.48;;;;;;;;;;5040973;28;20029;-58
2021/10/01 12:32:13;;;;;;;5.25;1.63;;;;;;;;;;5018048;28;20066;-58
2021/10/01 12:34:41;;;;;;;4.93;1.70;;;;;;;;;;5017857;28;20380;-60
2021/10/01 12:37:11;;;;;;;5.40;1.65;;;;;;;;;;5022541;28;20144;-58
2021/10/01 12:39:37;;;;;;;6.03;2.13;;;;;;;;;;5021910;28;20021;-58
2021/10/01 12:42:06;;;;;;;8.07;1.58;;;;;;;;;;5022287;28;20142;-58
2021/10/01 12:44:33;;;;;;;4.25;1.60;;;;;;;;;;5023528;28;20025;-58
2021/10/01 12:46:58;;;;;;;5.40;1.50;;;;;;;;;;5022075;28;20120;-59
2021/10/01 12:49:24;;;;;;;5.43;1.65;;;;;;;;;;5035811;28;20120;-57
2021/10/01 12:52:08;;;;;;;2.67;1.48;;;;;;;;;;5019926;28;20061;-57
2021/10/01 12:54:36;;;;;;;4.35;1.48;;;;;;;;;;5015189;28;20032;-57
2021/10/01 12:57:10;;;;;;;4.78;1.48;;;;;;;;;;5035644;28;20063;-58
2021/10/01 12:59:40;;;;;;;4.30;1.55;;;;;;;;;;5020558;28;20021;-58
2021/10/01 13:02:08;;;;;;;5.57;1.50;;;;;;;;;;5020705;28;20132;-58
2021/10/01 13:04:47;;;;;;;5.00;1.63;;;;;;;;;;5011518;28;20026;-58
2021/10/01 13:07:25;;;;;;;5.75;1.77;;;;;;;;;;5013468;28;20117;-58
2021/10/01 13:09:50;;;;;;;9.00;1.60;;;;;;;;;;5007040;28;20057;-58
2021/10/01 13:12:28;;;;;;;5.38;1.30;;;;;;;;;;5019254;28;20179;-58
2021/10/01 13:15:08;;;;;;;3.20;1.38;;;;;;;;;;5013896;28;20037;-58
2021/10/01 13:17:34;;;;;;;5.63;1.52;;;;;;;;;;5047011;28;20049;-58
2021/10/01 13:19:59;;;;;;;6.25;1.50;;;;;;;;;;5022375;28;20026;-58
2021/10/01 13:22:24;;;;;;;8.15;1.70;;;;;;;;;;5023960;28;20128;-58
2021/10/01 13:24:55;;;;;;;5.20;1.65;;;;;;;;;;5021837;28;20026;-57
2021/10/01 13:27:21;;;;;;;3.03;1.40;;;;;;;;;;5021423;28;20038;-59
2021/10/01 13:29:46;;;;;;;4.05;1.35;;;;;;;;;;5015052;28;20048;-58
2021/10/01 13:32:14;;;;;;;3.83;1.73;;;;;;;;;;5024356;28;20403;-58
2021/10/01 13:34:40;;;;;;;2.70;1.40;;;;;;;;;;5016985;28;20036;-57
2021/10/01 13:37:05;;;;;;;2.55;1.23;;;;;;;;;;5012347;28;20034;-58
2021/10/01 13:39:30;;;;;;;2.65;1.38;;;;;;;;;;5010974;28;20476;-57
2021/10/01 13:41:55;;;;;;;5.22;1.77;;;;;;;;;;5015092;28;20097;-57
2021/10/01 13:44:21;;;;;;;2.45;1.50;;;;;;;;;;5021486;28;20170;-59
2021/10/01 13:46:46;;;;;;;6.65;1.80;;;;;;;;;;5013848;28;20045;-58
2021/10/01 13:49:11;;;;;;;3.10;1.23;;;;;;;;;;5035419;28;20017;-58
2021/10/01 13:51:36;;;;;;;3.35;1.60;;;;;;;;;;5019543;28;20108;-58
2021/10/01 13:54:02;;;;;;;5.20;1.75;;;;;;;;;;5019258;28;20144;-58
2021/10/01 13:56:27;;;;;;;3.53;1.50;;;;;;;;;;5027400;28;20029;-58
2021/10/01 13:58:52;;;;;;;4.07;1.75;;;;;;;;;;5020869;28;20531;-58
2021/10/01 14:01:17;;;;;;;3.92;1.50;;;;;;;;;;5017850;28;21241;-58
2021/10/01 14:03:42;;;;;;;4.03;2.00;;;;;;;;;;5033735;28;20017;-58
2021/10/01 14:06:08;;;;;;;3.33;1.55;;;;;;;;;;5015868;28;20202;-57
2021/10/01 14:08:33;;;;;;;3.33;1.80;;;;;;;;;;5017060;28;20078;-57
2021/10/01 14:10:59;;;;;;;4.60;1.98;;;;;;;;;;5022029;28;20053;-59
2021/10/01 14:13:24;;;;;;;3.42;1.85;;;;;;;;;;5019695;28;20044;-57
2021/10/01 14:15:51;;;;;;;4.53;1.70;;;;;;;;;;5022738;28;20137;-60
2021/10/01 14:18:17;;;;;;;5.25;2.00;;;;;;;;;;5022589;28;20099;-58
2021/10/01 14:20:42;;;;;;;6.93;1.70;;;;;;;;;;5019904;28;20516;-58
2021/10/01 14:23:07;;;;;;;3.92;1.70;;;;;;;;;;5011412;28;20025;-57
2021/10/01 14:25:33;;;;;;;2.78;1.60;;;;;;;;;;5020971;28;20037;-60
2021/10/01 14:27:58;;;;;;;6.03;1.80;;;;;;;;;;5021570;28;20029;-57
2021/10/01 14:30:25;;;;;;;3.85;1.75;;;;;;;;;;5016198;28;20499;-57
2021/10/01 14:32:52;;;;;;;3.10;1.50;;;;;;;;;;5017908;28;20716;-57
2021/10/01 14:35:18;;;;;;;3.50;1.70;;;;;;;;;;5016428;28;20083;-57
2021/10/01 14:37:43;;;;;;;3.50;1.52;;;;;;;;;;5017432;28;20025;-57
2021/10/01 14:40:09;;;;;;;5.18;1.70;;;;;;;;;;5020967;28;20068;-57
2021/10/01 14:42:34;;;;;;;5.18;1.80;;;;;;;;;;5021749;28;20032;-58
2021/10/01 14:44:59;;;;;;;4.80;1.67;;;;;;;;;;5021060;28;20044;-57
2021/10/01 14:47:30;;;;;;;5.47;1.80;;;;;;;;;;5011904;28;20037;-57
2021/10/01 14:49:58;;;;;;;4.60;1.80;;;;;;;;;;5013134;28;20022;-57
2021/10/01 14:52:24;;;;;;;5.43;1.80;;;;;;;;;;5011059;28;20065;-57
2021/10/01 14:54:49;;;;;;;3.97;1.73;;;;;;;;;;5011200;28;20073;-59
2021/10/01 14:57:14;;;;;;;5.72;1.70;;;;;;;;;;5015531;28;20068;-59
2021/10/01 14:59:39;;;;;;;3.97;1.90;;;;;;;;;;5016223;28;20049;-58
2021/10/01 15:02:06;;;;;;;6.95;1.75;;;;;;;;;;5020010;28;20053;-58
2021/10/01 15:04:31;;;;;;;3.88;1.58;;;;;;;;;;5020242;28;20038;-59
2021/10/01 15:06:56;;;;;;;6.43;2.20;;;;;;;;;;5021008;28;20033;-59
2021/10/01 15:09:22;;;;;;;5.78;1.90;;;;;;;;;;5011964;28;20128;-58
2021/10/01 15:11:47;;;;;;;6.13;2.22;;;;;;;;;;5013385;28;20111;-59
2021/10/01 15:14:12;;;;;;;5.53;2.03;;;;;;;;;;5008924;28;20399;-59
2021/10/01 15:16:37;;;;;;;3.25;1.77;;;;;;;;;;5013861;28;20034;-58
2021/10/01 15:19:03;;;;;;;4.80;1.83;;;;;;;;;;5017306;28;20117;-57
2021/10/01 15:21:28;;;;;;;3.50;1.85;;;;;;;;;;5015276;28;20040;-57
2021/10/01 15:23:53;;;;;;;4.85;1.77;;;;;;;;;;5020050;28;20059;-57
2021/10/01 15:26:18;;;;;;;6.00;1.95;;;;;;;;;;5019040;28;20173;-57
2021/10/01 15:28:43;;;;;;;9.88;2.13;;;;;;;;;;5012410;28;20032;-58
2021/10/01 15:31:09;;;;;;;8.52;2.22;;;;;;;;;;5039387;28;20038;-58
2021/10/01 15:33:34;;;;;;;7.82;2.10;;;;;;;;;;5019976;28;20030;-59
2021/10/01 15:36:00;;;;;;;6.78;2.30;;;;;;;;;;5012543;28;20030;-58
2021/10/01 15:38:26;;;;;;;6.20;1.90;;;;;;;;;;5019002;28;20518;-58
2021/10/01 15:40:51;;;;;;;8.68;2.20;;;;;;;;;;5011934;28;20038;-58
2021/10/01 15:43:17;;;;;;;9.75;2.95;;;;;;;;;;5015531;28;20152;-58
2021/10/01 15:45:42;;;;;;;6.32;1.90;;;;;;;;;;5032527;28;20037;-59
2021/10/01 15:48:08;;;;;;;5.15;2.00;;;;;;;;;;5012564;28;20036;-59
2021/10/01 15:50:33;;;;;;;8.48;2.08;;;;;;;;;;5014238;28;20120;-59
2021/10/01 15:52:59;;;;;;;6.75;1.98;;;;;;;;;;5017068;28;20393;-57
2021/10/01 15:55:24;;;;;;;6.97;2.05;;;;;;;;;;5012316;28;20034;-59
2021/10/01 15:57:49;;;;;;;7.20;2.10;;;;;;;;;;5011279;28;20611;-59
2021/10/01 16:00:15;;;;;;;7.68;1.90;;;;;;;;;;5010232;28;20028;-57
2021/10/01 16:02:41;;;;;;;8.07;2.13;;;;;;;;;;5018284;28;20411;-57
2021/10/01 16:05:07;;;;;;;4.97;2.20;;;;;;;;;;5006414;28;20029;-58
2021/10/01 16:07:32;;;;;;;6.10;2.20;;;;;;;;;;5008005;28;20156;-59
2021/10/01 16:09:58;;;;;;;5.30;2.72;;;;;;;;;;5010848;28;20064;-57